Time;durP1;ratioP1;P1;durP2;ratioP2;P2;SDS_P1;SDS_P2;PMS_P1;PMS_P2;Temp;Humidity;BMP_temperature;BMP_pressure;BME280_temperature;BME280_humidity;BME280_pressure;Samples;Min_cycle;Max_cycle;Signal;HPM_P1;HPM_P2
2021/04/27 00:00:22;;;;;;;3.20;2.23;;;7.40;45.50;;;;;;5054983;28;20458;-76
2021/04/27 00:02:49;;;;;;;2.00;1.90;;;7.40;45.10;;;;;;5054943;28;20450;-76
2021/04/27 00:05:17;;;;;;;3.37;2.30;;;7.40;45.00;;;;;;5054648;28;20936;-76
2021/04/27 00:07:45;;;;;;;4.10;2.20;;;7.30;44.80;;;;;;5054667;28;20450;-76
2021/04/27 00:10:13;;;;;;;1.90;1.80;;;7.30;43.90;;;;;;5054428;28;21065;-77
2021/04/27 00:12:40;;;;;;;6.10;2.40;;;7.30;44.60;;;;;;5054758;28;20450;-76
2021/04/27 00:15:09;;;;;;;4.53;2.37;;;7.20;44.80;;;;;;5054744;28;20461;-76
2021/04/27 00:17:36;;;;;;;2.70;2.13;;;7.20;44.60;;;;;;5054433;28;20889;-76
2021/04/27 00:20:05;;;;;;;2.27;2.07;;;7.20;44.00;;;;;;5054615;28;20438;-77
2021/04/27 00:22:31;;;;;;;3.10;2.40;;;7.20;43.80;;;;;;5054556;28;20446;-76
2021/04/27 00:24:58;;;;;;;3.23;2.10;;;7.20;43.70;;;;;;5054063;28;20438;-77
2021/04/27 00:27:24;;;;;;;2.57;1.83;;;7.20;43.70;;;;;;5054393;28;20481;-76
2021/04/27 00:29:51;;;;;;;4.97;1.83;;;7.10;43.80;;;;;;5054308;28;20547;-76
2021/04/27 00:32:17;;;;;;;2.20;1.83;;;7.00;44.60;;;;;;5054362;28;20449;-76
2021/04/27 00:34:44;;;;;;;4.03;2.37;;;7.00;44.40;;;;;;5054033;28;20442;-76
2021/04/27 00:37:11;;;;;;;5.40;2.10;;;7.00;45.50;;;;;;5054147;28;20473;-76
2021/04/27 00:39:37;;;;;;;2.83;1.77;;;6.90;45.20;;;;;;5054251;28;20446;-76
2021/04/27 00:42:03;;;;;;;2.83;2.20;;;6.90;44.60;;;;;;5054192;28;20446;-76
2021/04/27 00:44:30;;;;;;;4.40;2.00;;;6.90;45.10;;;;;;5053836;28;20461;-76
2021/04/27 00:46:56;;;;;;;5.60;2.30;;;6.80;46.10;;;;;;5054035;28;20469;-76
2021/04/27 00:49:22;;;;;;;2.47;2.27;;;6.80;45.10;;;;;;5053824;28;20482;-76
2021/04/27 00:51:49;;;;;;;3.50;2.07;;;6.80;45.70;;;;;;5054038;28;20454;-76
2021/04/27 00:54:16;;;;;;;1.80;1.70;;;6.80;46.50;;;;;;5053672;28;20531;-76
2021/04/27 00:56:42;;;;;;;3.43;2.10;;;6.80;47.40;;;;;;5053894;28;20462;-76
2021/04/27 00:59:08;;;;;;;5.10;2.13;;;6.80;46.10;;;;;;5053945;28;20500;-76
2021/04/27 01:01:35;;;;;;;2.93;2.07;;;6.80;46.20;;;;;;5053577;28;20936;-76
2021/04/27 01:04:01;;;;;;;8.70;2.00;;;6.70;45.70;;;;;;5053800;28;20454;-76
2021/04/27 01:06:27;;;;;;;5.03;2.50;;;6.70;45.40;;;;;;5053671;28;20822;-76
2021/04/27 01:09:01;;;;;;;3.57;2.23;;;6.70;45.60;;;;;;5053657;28;20446;-77
2021/04/27 01:11:35;;;;;;;2.80;2.20;;;6.70;45.50;;;;;;5054439;28;20453;-76
2021/04/27 01:14:13;;;;;;;5.90;1.83;;;6.60;47.20;;;;;;5053403;28;20429;-76
2021/04/27 01:16:51;;;;;;;2.17;2.03;;;6.60;47.80;;;;;;5053272;28;21009;-76
2021/04/27 01:19:27;;;;;;;3.03;2.10;;;6.50;48.90;;;;;;5053305;28;20430;-76
2021/04/27 01:21:55;;;;;;;2.80;2.10;;;6.50;49.20;;;;;;5053538;28;20433;-76
2021/04/27 01:24:26;;;;;;;3.50;2.43;;;6.40;49.30;;;;;;5053329;28;20549;-76
2021/04/27 01:26:56;;;;;;;2.00;1.90;;;6.30;48.20;;;;;;5053410;28;20472;-76
2021/04/27 01:29:27;;;;;;;2.10;1.90;;;6.30;49.50;;;;;;5053358;28;20485;-76
2021/04/27 01:31:54;;;;;;;4.67;2.57;;;6.20;50.40;;;;;;5053440;28;20441;-76
2021/04/27 01:34:23;;;;;;;6.07;1.80;;;6.20;51.60;;;;;;5053354;28;20504;-76
2021/04/27 01:36:50;;;;;;;5.40;2.03;;;6.20;52.30;;;;;;5052111;28;20496;-76
2021/04/27 01:39:17;;;;;;;2.30;1.97;;;6.10;51.80;;;;;;5053333;28;20477;-76
2021/04/27 01:41:43;;;;;;;1.90;1.80;;;6.10;51.00;;;;;;5053262;28;20445;-76
2021/04/27 01:44:11;;;;;;;3.77;2.03;;;6.00;50.90;;;;;;5053282;28;20434;-76
2021/04/27 01:46:38;;;;;;;2.87;2.10;;;6.00;52.10;;;;;;5053140;28;20544;-76
2021/04/27 01:49:05;;;;;;;2.23;2.13;;;6.00;52.50;;;;;;5053672;28;20450;-76
2021/04/27 01:51:32;;;;;;;2.00;1.67;;;6.00;51.70;;;;;;5053150;28;20472;-76
2021/04/27 01:53:59;;;;;;;2.50;1.90;;;5.90;51.20;;;;;;5052890;28;20481;-76
2021/04/27 01:56:25;;;;;;;2.10;1.70;;;5.90;51.80;;;;;;5053094;28;20465;-76
2021/04/27 01:58:52;;;;;;;3.03;2.10;;;5.80;51.70;;;;;;5053143;28;20454;-77
2021/04/27 02:01:20;;;;;;;3.00;2.53;;;5.80;52.50;;;;;;5053133;28;20449;-76
2021/04/27 02:03:48;;;;;;;2.40;2.20;;;5.70;52.20;;;;;;5052743;28;20450;-76
2021/04/27 02:06:15;;;;;;;2.23;2.03;;;5.60;53.30;;;;;;5052997;28;20492;-76
2021/04/27 02:08:47;;;;;;;2.30;2.10;;;5.60;53.00;;;;;;5053021;28;20461;-76
2021/04/27 02:11:13;;;;;;;2.90;2.00;;;5.60;53.30;;;;;;5052674;28;21007;-76
2021/04/27 02:13:40;;;;;;;2.53;2.17;;;5.60;53.40;;;;;;5052985;28;20477;-76
2021/04/27 02:16:07;;;;;;;3.43;2.30;;;5.60;53.60;;;;;;5052562;28;20474;-76
2021/04/27 02:18:38;;;;;;;2.10;1.57;;;5.60;53.00;;;;;;5052909;28;20449;-76
2021/04/27 02:21:07;;;;;;;2.03;1.87;;;5.60;53.00;;;;;;5052640;28;20799;-76
2021/04/27 02:23:34;;;;;;;2.00;1.90;;;5.60;52.90;;;;;;5052525;28;20968;-76
2021/04/27 02:26:01;;;;;;;2.93;1.53;;;5.50;53.30;;;;;;5052761;28;20497;-76
2021/04/27 02:28:30;;;;;;;2.90;2.60;;;5.50;53.80;;;;;;5052884;28;20446;-76
2021/04/27 02:30:59;;;;;;;2.00;1.83;;;5.40;54.00;;;;;;5052744;28;20481;-76
2021/04/27 02:33:25;;;;;;;2.13;1.93;;;5.40;53.40;;;;;;5052778;28;20453;-76
2021/04/27 02:35:53;;;;;;;4.10;2.57;;;5.30;53.90;;;;;;5052435;28;20461;-76
2021/04/27 02:38:20;;;;;;;2.77;2.20;;;5.30;54.70;;;;;;5052454;28;20460;-76
2021/04/27 02:40:52;;;;;;;2.63;2.43;;;5.30;54.70;;;;;;5052491;28;20848;-76
2021/04/27 02:43:18;;;;;;;3.60;2.17;;;5.20;55.00;;;;;;5052441;28;20433;-76
2021/04/27 02:45:45;;;;;;;2.37;2.07;;;5.20;55.00;;;;;;5052688;28;20454;-76
2021/04/27 02:48:12;;;;;;;3.33;2.23;;;5.20;55.50;;;;;;5053986;28;20454;-76
2021/04/27 02:50:42;;;;;;;7.03;2.07;;;5.20;56.20;;;;;;5055935;28;20865;-76
2021/04/27 02:53:10;;;;;;;3.13;2.20;;;5.10;55.80;;;;;;5056045;28;20453;-76
2021/04/27 02:55:36;;;;;;;4.30;2.17;;;5.10;55.70;;;;;;5056239;28;20441;-76
2021/04/27 02:58:02;;;;;;;3.40;2.10;;;5.00;55.70;;;;;;5056252;28;20476;-76
2021/04/27 03:00:28;;;;;;;4.00;2.10;;;5.10;55.70;;;;;;5056122;28;20446;-76
2021/04/27 03:02:55;;;;;;;2.53;2.33;;;5.10;55.70;;;;;;5056111;28;20449;-76
2021/04/27 03:05:21;;;;;;;2.40;1.90;;;5.10;55.40;;;;;;5056107;28;20449;-76
2021/04/27 03:07:47;;;;;;;3.37;2.37;;;5.10;55.00;;;;;;5056059;28;20491;-76
2021/04/27 03:10:15;;;;;;;2.23;2.07;;;5.10;55.80;;;;;;5055923;28;20485;-76
2021/04/27 03:12:41;;;;;;;2.50;1.90;;;5.10;55.70;;;;;;5055920;28;20508;-76
2021/04/27 03:15:09;;;;;;;2.40;2.20;;;5.00;55.60;;;;;;5055939;28;20445;-76
2021/04/27 03:17:36;;;;;;;2.23;1.77;;;4.90;56.10;;;;;;5055785;28;20473;-76
2021/04/27 03:20:04;;;;;;;2.30;2.10;;;4.80;55.70;;;;;;5055506;28;20445;-76
2021/04/27 03:22:30;;;;;;;4.13;2.37;;;4.70;56.20;;;;;;5055770;28;20446;-76
2021/04/27 03:24:56;;;;;;;2.53;2.10;;;4.70;56.50;;;;;;5055710;28;20449;-76
2021/04/27 03:27:23;;;;;;;2.27;2.10;;;4.60;56.70;;;;;;5055328;28;20811;-76
2021/04/27 03:29:50;;;;;;;2.43;2.23;;;4.60;56.70;;;;;;5055121;28;20705;-76
2021/04/27 03:32:16;;;;;;;4.93;2.57;;;4.50;57.00;;;;;;5055316;28;20434;-76
2021/04/27 03:34:42;;;;;;;3.30;2.67;;;4.50;57.00;;;;;;5055211;28;20828;-76
2021/04/27 03:37:09;;;;;;;2.40;2.20;;;4.50;57.40;;;;;;5055402;28;20465;-76
2021/04/27 03:39:35;;;;;;;3.43;2.30;;;4.40;57.50;;;;;;5055106;28;20866;-76
2021/04/27 03:42:02;;;;;;;5.53;2.53;;;4.50;57.60;;;;;;5055375;28;20484;-77
2021/04/27 03:44:29;;;;;;;2.67;2.57;;;4.50;57.90;;;;;;5055346;28;20819;-77
2021/04/27 03:46:55;;;;;;;5.30;2.27;;;4.50;58.10;;;;;;5055214;28;20465;-81
2021/04/27 03:49:22;;;;;;;4.13;2.60;;;4.50;57.50;;;;;;5054887;28;20481;-81
2021/04/27 03:51:48;;;;;;;3.50;2.40;;;4.50;57.60;;;;;;5054943;28;20960;-81
2021/04/27 03:54:14;;;;;;;4.33;2.47;;;4.50;57.70;;;;;;5054809;28;20477;-81
2021/04/27 03:56:41;;;;;;;3.37;2.37;;;4.40;57.80;;;;;;5054743;28;21000;-81
2021/04/27 03:59:07;;;;;;;2.43;2.23;;;4.50;57.90;;;;;;5054527;28;20453;-81
2021/04/27 04:01:35;;;;;;;3.10;2.53;;;4.50;57.90;;;;;;5054718;28;20453;-81
2021/04/27 04:04:01;;;;;;;2.90;2.43;;;4.50;58.30;;;;;;5054957;28;20450;-81
2021/04/27 04:06:28;;;;;;;2.40;2.20;;;4.50;58.10;;;;;;5054891;28;20545;-81
2021/04/27 04:08:54;;;;;;;7.57;2.57;;;4.60;58.40;;;;;;5054861;28;20450;-81
2021/04/27 04:11:20;;;;;;;1.93;1.70;;;4.70;58.40;;;;;;5055323;28;20481;-81
2021/04/27 04:13:47;;;;;;;2.47;2.27;;;4.70;58.20;;;;;;5054788;28;20445;-81
2021/04/27 04:16:13;;;;;;;5.20;3.00;;;4.60;58.50;;;;;;5054418;28;20980;-81
2021/04/27 04:18:40;;;;;;;5.20;2.20;;;4.50;58.30;;;;;;5054767;28;20449;-81
2021/04/27 04:21:06;;;;;;;3.90;2.67;;;4.50;58.30;;;;;;5054489;28;20446;-81
2021/04/27 04:23:33;;;;;;;3.97;2.50;;;4.60;58.60;;;;;;5054690;28;20454;-81
2021/04/27 04:25:59;;;;;;;2.70;2.50;;;4.50;58.70;;;;;;5054721;28;20462;-81
2021/04/27 04:28:25;;;;;;;4.63;2.53;;;4.50;58.60;;;;;;5054599;28;20454;-81
2021/04/27 04:30:52;;;;;;;4.20;2.40;;;4.40;59.10;;;;;;5054453;28;20477;-81
2021/04/27 04:33:18;;;;;;;12.27;2.40;;;4.40;59.00;;;;;;5054445;28;20453;-81
2021/04/27 04:35:45;;;;;;;2.30;2.10;;;4.40;58.50;;;;;;5054272;28;20473;-81
2021/04/27 04:38:14;;;;;;;4.33;2.53;;;4.40;58.30;;;;;;5053979;28;20824;-81
2021/04/27 04:40:40;;;;;;;2.90;2.30;;;4.30;58.90;;;;;;5053940;28;20457;-81
2021/04/27 04:43:06;;;;;;;3.90;2.53;;;4.40;59.10;;;;;;5053964;28;20959;-81
2021/04/27 04:45:33;;;;;;;4.23;2.80;;;4.40;59.00;;;;;;5054137;28;20445;-82
2021/04/27 04:47:59;;;;;;;2.00;1.90;;;4.50;59.40;;;;;;5054153;28;20457;-81
2021/04/27 04:50:25;;;;;;;2.57;2.37;;;4.50;59.60;;;;;;5054045;28;20469;-81
2021/04/27 04:52:53;;;;;;;2.93;2.60;;;4.50;59.60;;;;;;5053856;28;20453;-81
2021/04/27 04:55:19;;;;;;;3.23;2.83;;;4.60;59.40;;;;;;5054004;28;20458;-82
2021/04/27 04:57:45;;;;;;;4.47;3.20;;;4.60;60.00;;;;;;5053617;28;20469;-82
2021/04/27 05:00:14;;;;;;;4.30;2.77;;;4.70;59.50;;;;;;5053928;28;20456;-82
2021/04/27 05:02:41;;;;;;;4.90;3.23;;;4.70;59.20;;;;;;5053831;28;20445;-82
2021/04/27 05:05:09;;;;;;;8.07;3.20;;;4.70;59.50;;;;;;5053833;28;20446;-82
2021/04/27 05:07:41;;;;;;;8.13;2.90;;;4.80;59.30;;;;;;5054266;28;20469;-81
2021/04/27 05:10:11;;;;;;;2.90;2.70;;;4.80;59.50;;;;;;5055904;28;20468;-82
2021/04/27 05:12:37;;;;;;;6.00;3.60;;;4.90;59.40;;;;;;5055172;28;20461;-81
2021/04/27 05:15:04;;;;;;;4.77;2.93;;;5.00;59.00;;;;;;5053346;28;20948;-82
2021/04/27 05:17:31;;;;;;;5.20;3.13;;;5.00;59.30;;;;;;5053550;28;20474;-82
2021/04/27 05:19:59;;;;;;;3.07;2.80;;;5.10;59.10;;;;;;5053582;28;20440;-82
2021/04/27 05:22:25;;;;;;;5.13;2.67;;;5.20;59.00;;;;;;5053581;28;20457;-82
2021/04/27 05:24:52;;;;;;;5.60;3.03;;;5.20;58.70;;;;;;5053214;28;20794;-82
2021/04/27 05:27:19;;;;;;;3.30;2.80;;;5.30;58.80;;;;;;5053104;28;20849;-82
2021/04/27 05:29:45;;;;;;;7.63;3.10;;;5.50;58.30;;;;;;5053381;28;20489;-82
2021/04/27 05:32:11;;;;;;;3.87;3.00;;;5.60;57.40;;;;;;5053419;28;20473;-77
2021/04/27 05:34:38;;;;;;;4.33;3.10;;;5.70;57.20;;;;;;5053052;28;20967;-78
2021/04/27 05:37:05;;;;;;;4.87;3.40;;;5.80;57.10;;;;;;5053039;28;20450;-77
2021/04/27 05:39:31;;;;;;;4.03;3.37;;;5.90;57.00;;;;;;5053017;28;20453;-77
2021/04/27 05:41:58;;;;;;;3.03;2.77;;;6.00;56.50;;;;;;5053295;28;20450;-77
2021/04/27 05:44:25;;;;;;;4.50;3.57;;;6.10;56.80;;;;;;5053277;28;20461;-77
2021/04/27 05:46:52;;;;;;;4.60;2.60;;;6.20;55.70;;;;;;5052860;28;21010;-78
2021/04/27 05:49:18;;;;;;;4.47;3.57;;;6.40;55.90;;;;;;5053528;28;20450;-77
2021/04/27 05:51:45;;;;;;;5.17;3.50;;;6.40;56.10;;;;;;5056133;28;20456;-78
2021/04/27 05:54:11;;;;;;;3.20;3.00;;;6.60;56.20;;;;;;5053605;28;20535;-77
2021/04/27 05:56:37;;;;;;;5.53;3.37;;;6.80;55.30;;;;;;5053355;28;20531;-77
2021/04/27 05:59:05;;;;;;;4.83;3.13;;;6.90;55.40;;;;;;5053635;28;20450;-78
2021/04/27 06:01:32;;;;;;;3.90;3.57;;;7.10;55.30;;;;;;5052810;28;20447;-77
2021/04/27 06:03:59;;;;;;;4.73;3.20;;;7.40;54.50;;;;;;5053197;28;20438;-82
2021/04/27 06:06:25;;;;;;;3.13;2.93;;;7.80;53.60;;;;;;5052693;28;20988;-82
2021/04/27 06:08:52;;;;;;;5.00;3.77;;;8.10;53.10;;;;;;5052736;28;20453;-82
2021/04/27 06:11:18;;;;;;;4.00;3.63;;;8.40;51.70;;;;;;5052977;28;20483;-82
2021/04/27 06:13:44;;;;;;;5.57;3.10;;;8.70;52.50;;;;;;5053049;28;20454;-77
2021/04/27 06:16:11;;;;;;;4.10;3.30;;;8.90;51.10;;;;;;5052924;28;20473;-77
2021/04/27 06:18:38;;;;;;;4.37;3.50;;;9.10;50.80;;;;;;5052971;28;20441;-78
2021/04/27 06:21:06;;;;;;;4.07;3.40;;;9.40;49.70;;;;;;5052955;28;20453;-82
2021/04/27 06:23:32;;;;;;;3.60;3.30;;;9.50;50.00;;;;;;5054576;28;20453;-82
2021/04/27 06:25:59;;;;;;;3.87;3.50;;;9.70;49.80;;;;;;5056609;28;20465;-82
2021/04/27 06:28:25;;;;;;;3.03;2.83;;;10.00;50.10;;;;;;5057101;28;20448;-82
2021/04/27 06:30:51;;;;;;;10.93;3.50;;;10.40;48.10;;;;;;5056663;28;20496;-82
2021/04/27 06:33:17;;;;;;;3.83;3.50;;;10.90;48.30;;;;;;5056681;28;20441;-82
2021/04/27 06:35:44;;;;;;;5.33;3.50;;;11.30;46.80;;;;;;5056374;28;20479;-82
2021/04/27 06:38:16;;;;;;;4.20;3.60;;;11.90;45.80;;;;;;5056326;28;20970;-82
2021/04/27 06:40:43;;;;;;;6.40;3.93;;;12.10;45.40;;;;;;5056318;28;20924;-82
2021/04/27 06:43:09;;;;;;;6.50;4.33;;;12.50;44.40;;;;;;5056160;28;20503;-82
2021/04/27 06:45:35;;;;;;;4.80;3.80;;;13.00;44.40;;;;;;5056106;28;20959;-82
2021/04/27 06:48:03;;;;;;;4.70;3.70;;;13.70;41.80;;;;;;5056465;28;20446;-82
2021/04/27 06:50:30;;;;;;;5.90;4.17;;;14.20;41.80;;;;;;5056190;28;20940;-82
2021/04/27 06:52:58;;;;;;;5.70;4.43;;;14.90;40.10;;;;;;5056130;28;20808;-81
2021/04/27 06:55:24;;;;;;;6.03;3.43;;;15.60;39.20;;;;;;5056923;28;20458;-82
2021/04/27 06:57:50;;;;;;;6.17;4.30;;;16.50;37.80;;;;;;5056235;28;20456;-78
2021/04/27 07:00:18;;;;;;;11.60;4.83;;;17.40;37.40;;;;;;5056014;28;20533;-78
2021/04/27 07:02:44;;;;;;;4.67;4.27;;;18.20;36.00;;;;;;5056209;28;20454;-78
2021/04/27 07:05:11;;;;;;;5.13;4.63;;;18.50;35.70;;;;;;5056109;28;20452;-78
2021/04/27 07:07:37;;;;;;;4.77;3.80;;;18.70;34.10;;;;;;5056015;28;20468;-78
2021/04/27 07:10:05;;;;;;;5.07;4.60;;;18.60;35.90;;;;;;5055946;28;20481;-78
2021/04/27 07:12:31;;;;;;;6.40;4.20;;;18.60;34.40;;;;;;5055670;28;20453;-78
2021/04/27 07:14:58;;;;;;;7.80;4.70;;;18.50;33.80;;;;;;5055880;28;20453;-78
2021/04/27 07:17:24;;;;;;;7.33;4.40;;;18.40;34.70;;;;;;5055791;28;20477;-78
2021/04/27 07:19:50;;;;;;;5.10;4.60;;;19.40;33.50;;;;;;5055501;28;20445;-78
2021/04/27 07:22:17;;;;;;;5.30;4.63;;;20.60;32.20;;;;;;5055503;28;20441;-78
2021/04/27 07:24:43;;;;;;;4.97;4.57;;;21.30;32.50;;;;;;5055407;28;20940;-78
2021/04/27 07:27:10;;;;;;;5.67;5.13;;;22.40;30.30;;;;;;5055312;28;20223;-78
2021/04/27 07:29:36;;;;;;;4.82;4.43;;;22.90;30.00;;;;;;5055268;28;20213;-78
2021/04/27 07:32:04;;;;;;;6.75;4.50;;;23.30;29.60;;;;;;5055353;28;20561;-79
2021/04/27 07:34:30;;;;;;;4.95;4.55;;;24.00;28.90;;;;;;5054312;28;20578;-78
2021/04/27 07:36:56;;;;;;;6.03;4.55;;;24.30;28.70;;;;;;5055154;28;20256;-78
2021/04/27 07:39:22;;;;;;;6.63;5.03;;;24.60;28.20;;;;;;5055094;28;20207;-78
2021/04/27 07:41:49;;;;;;;4.28;3.95;;;24.30;28.40;;;;;;5055192;28;20203;-79
2021/04/27 07:44:16;;;;;;;9.63;4.80;;;24.40;28.40;;;;;;5055382;28;20237;-78
2021/04/27 07:46:42;;;;;;;5.60;4.78;;;24.30;28.10;;;;;;5054947;28;20223;-82
2021/04/27 07:49:09;;;;;;;5.15;4.65;;;24.40;28.20;;;;;;5055389;28;20199;-82
2021/04/27 07:51:35;;;;;;;5.47;5.05;;;24.70;28.00;;;;;;5055196;28;20227;-82
2021/04/27 07:54:01;;;;;;;5.25;4.85;;;25.20;28.10;;;;;;5054893;28;20262;-82
2021/04/27 07:56:29;;;;;;;5.20;4.80;;;25.60;27.40;;;;;;5055110;28;20229;-82
2021/04/27 07:58:57;;;;;;;6.25;5.15;;;26.50;26.10;;;;;;5055232;28;20206;-78
2021/04/27 08:01:24;;;;;;;5.20;4.80;;;27.00;25.70;;;;;;5055061;28;20202;-79
2021/04/27 08:03:50;;;;;;;5.03;4.63;;;26.90;26.40;;;;;;5054897;28;20207;-78
2021/04/27 08:06:17;;;;;;;5.28;4.43;;;27.40;26.30;;;;;;5055142;28;20233;-78
2021/04/27 08:08:43;;;;;;;5.05;4.65;;;27.90;25.40;;;;;;5054964;28;20203;-79
2021/04/27 08:11:09;;;;;;;5.53;5.13;;;28.20;25.40;;;;;;5054719;28;20306;-78
2021/04/27 08:13:36;;;;;;;5.97;5.47;;;28.30;25.20;;;;;;5054857;28;20253;-79
2021/04/27 08:16:02;;;;;;;7.82;5.18;;;28.50;25.20;;;;;;5054496;28;20215;-79
2021/04/27 08:18:30;;;;;;;8.65;6.03;;;28.80;24.90;;;;;;5054764;28;20203;-79
2021/04/27 08:20:57;;;;;;;6.53;6.03;;;28.90;25.10;;;;;;5054455;28;20185;-76
2021/04/27 08:23:23;;;;;;;5.43;4.95;;;28.90;24.80;;;;;;5054673;28;20202;-79
2021/04/27 08:25:49;;;;;;;5.95;5.45;;;29.10;24.70;;;;;;5055254;28;20246;-79
2021/04/27 08:28:16;;;;;;;6.22;5.63;;;29.70;24.20;;;;;;5054383;28;20190;-78
2021/04/27 08:30:42;;;;;;;8.38;5.40;;;29.90;24.00;;;;;;5054299;28;20553;-78
2021/04/27 08:33:08;;;;;;;6.55;5.60;;;30.50;23.70;;;;;;5054546;28;20195;-78
2021/04/27 08:35:36;;;;;;;6.60;5.40;;;30.40;23.40;;;;;;5054122;28;20650;-79
2021/04/27 08:38:02;;;;;;;6.20;5.70;;;30.00;23.70;;;;;;5054332;28;20187;-78
2021/04/27 08:40:28;;;;;;;6.70;5.68;;;29.90;24.00;;;;;;5054315;28;20186;-78
2021/04/27 08:42:54;;;;;;;5.97;5.47;;;29.10;23.90;;;;;;5054316;28;20195;-78
2021/04/27 08:45:21;;;;;;;7.65;5.75;;;28.50;24.60;;;;;;5053885;28;20191;-78
2021/04/27 08:47:47;;;;;;;7.13;6.53;;;28.10;24.90;;;;;;5054110;28;20227;-78
2021/04/27 08:50:16;;;;;;;5.95;5.43;;;27.50;24.60;;;;;;5054084;28;20210;-78
2021/04/27 08:52:43;;;;;;;6.13;5.63;;;27.00;24.80;;;;;;5053878;28;20592;-79
2021/04/27 08:55:10;;;;;;;5.85;5.30;;;26.00;25.50;;;;;;5053692;28;20240;-78
2021/04/27 08:57:37;;;;;;;5.50;5.00;;;26.00;25.70;;;;;;5054003;28;20228;-82
2021/04/27 09:00:06;;;;;;;5.82;5.32;;;26.00;26.20;;;;;;5053957;28;20190;-82
2021/04/27 09:02:32;;;;;;;13.48;6.00;;;26.10;26.30;;;;;;5053972;28;20301;-82
2021/04/27 09:04:59;;;;;;;7.00;5.85;;;26.00;26.50;;;;;;5053926;28;20190;-81
2021/04/27 09:07:27;;;;;;;6.00;5.60;;;26.40;25.50;;;;;;5053505;28;20219;-82
2021/04/27 09:09:56;;;;;;;5.97;5.57;;;26.50;25.90;;;;;;5053518;28;20208;-82
2021/04/27 09:12:24;;;;;;;6.07;5.03;;;27.00;25.40;;;;;;5053996;28;20207;-82
2021/04/27 09:14:51;;;;;;;5.63;5.22;;;27.70;24.90;;;;;;5054108;28;20183;-77
2021/04/27 09:17:18;;;;;;;5.47;4.97;;;28.00;24.40;;;;;;5053358;28;20768;-78
2021/04/27 09:19:46;;;;;;;5.53;5.03;;;27.80;24.90;;;;;;5053389;28;20189;-77
2021/04/27 09:22:15;;;;;;;7.15;5.18;;;26.90;23.70;;;;;;5053749;28;20290;-78
2021/04/27 09:24:45;;;;;;;7.30;5.00;;;25.90;23.60;;;;;;5053335;28;20669;-78
2021/04/27 09:27:15;;;;;;;5.32;4.93;;;25.10;24.80;;;;;;5053191;28;20227;-77
2021/04/27 09:29:43;;;;;;;6.03;5.50;;;24.70;25.30;;;;;;5053428;28;20191;-77
2021/04/27 09:32:10;;;;;;;6.88;6.18;;;24.50;26.10;;;;;;5053432;28;20225;-81
2021/04/27 09:34:38;;;;;;;6.80;5.70;;;24.30;26.10;;;;;;5053496;28;20183;-81
2021/04/27 09:37:06;;;;;;;6.15;5.60;;;24.50;26.50;;;;;;5053270;28;20234;-81
2021/04/27 09:39:36;;;;;;;6.05;5.45;;;24.60;25.10;;;;;;5053382;28;20344;-81
2021/04/27 09:42:05;;;;;;;5.80;5.00;;;24.20;24.70;;;;;;5053367;28;20194;-82
2021/04/27 09:44:38;;;;;;;5.73;5.23;;;24.10;26.60;;;;;;5053376;28;20194;-77
2021/04/27 09:47:10;;;;;;;6.60;5.80;;;24.20;25.90;;;;;;5053005;28;20225;-78
2021/04/27 09:49:36;;;;;;;5.80;5.30;;;23.50;26.20;;;;;;5052893;28;20932;-79
2021/04/27 09:52:07;;;;;;;6.90;6.13;;;23.30;26.30;;;;;;5052965;28;20859;-79
2021/04/27 09:54:34;;;;;;;6.07;5.57;;;23.20;26.60;;;;;;5052772;28;20487;-78
2021/04/27 09:57:00;;;;;;;6.20;5.33;;;23.40;27.40;;;;;;5052966;28;20841;-78
2021/04/27 09:59:29;;;;;;;8.57;6.00;;;23.40;26.40;;;;;;5057070;28;20432;-78
2021/04/27 10:01:57;;;;;;;6.30;5.70;;;23.30;26.70;;;;;;5057335;28;20476;-78
2021/04/27 10:04:26;;;;;;;6.33;5.77;;;23.60;26.80;;;;;;5057348;28;20444;-78
2021/04/27 10:06:52;;;;;;;6.80;5.67;;;23.80;26.80;;;;;;5057678;28;20481;-80
2021/04/27 10:09:19;;;;;;;6.33;5.73;;;24.20;28.10;;;;;;5057231;28;20190;-79
2021/04/27 10:11:47;;;;;;;7.20;6.30;;;24.20;26.70;;;;;;5056841;28;20747;-79
2021/04/27 10:14:14;;;;;;;6.50;5.90;;;24.10;27.60;;;;;;5057148;28;20198;-79
2021/04/27 10:16:41;;;;;;;7.00;6.38;;;24.10;27.50;;;;;;5056727;28;20231;-79
2021/04/27 10:19:09;;;;;;;6.60;6.00;;;24.30;27.70;;;;;;5057067;28;20183;-79
2021/04/27 10:21:37;;;;;;;6.13;5.53;;;24.60;27.00;;;;;;5056983;28;20183;-79
2021/04/27 10:24:07;;;;;;;7.55;6.07;;;24.50;27.30;;;;;;5056991;28;20194;-79
2021/04/27 10:26:36;;;;;;;6.25;5.75;;;24.10;25.70;;;;;;5056831;28;20223;-79
2021/04/27 10:29:07;;;;;;;6.53;5.82;;;24.10;26.40;;;;;;5056880;28;20183;-78
2021/04/27 10:31:35;;;;;;;7.47;6.78;;;24.70;26.80;;;;;;5056750;28;20207;-78
2021/04/27 10:34:05;;;;;;;9.13;6.72;;;25.00;25.40;;;;;;5056913;28;20297;-79
2021/04/27 10:36:33;;;;;;;6.32;5.82;;;25.20;25.60;;;;;;5056621;28;20595;-78
2021/04/27 10:39:01;;;;;;;8.98;7.18;;;24.80;25.90;;;;;;5056706;28;20193;-78
2021/04/27 10:41:50;;;;;;;8.02;7.32;;;25.20;26.10;;;;;;5056657;28;20179;-78
2021/04/27 10:44:17;;;;;;;6.53;5.93;;;25.30;26.20;;;;;;5056606;28;20191;-78
2021/04/27 10:46:47;;;;;;;7.20;5.97;;;25.60;24.80;;;;;;5056206;28;20211;-78
2021/04/27 10:49:20;;;;;;;7.43;6.43;;;25.80;24.40;;;;;;5056497;28;20191;-78
2021/04/27 10:51:48;;;;;;;9.02;6.63;;;26.00;24.60;;;;;;5056023;28;20207;-78
2021/04/27 10:54:20;;;;;;;9.20;6.82;;;27.10;24.10;;;;;;5056119;28;20242;-78
2021/04/27 10:56:48;;;;;;;7.55;6.80;;;27.70;24.30;;;;;;5056049;28;20725;-78
2021/04/27 10:59:17;;;;;;;7.60;6.82;;;27.80;24.20;;;;;;5056121;28;20229;-78
2021/04/27 11:01:45;;;;;;;8.13;7.30;;;28.40;23.60;;;;;;5056488;28;20278;-79
2021/04/27 11:04:28;;;;;;;7.93;7.22;;;27.70;23.70;;;;;;5055960;28;20198;-78
2021/04/27 11:07:35;;;;;;;7.68;7.05;;;26.70;24.70;;;;;;5056037;28;20276;-78
2021/04/27 11:10:32;;;;;;;7.75;7.05;;;25.10;25.30;;;;;;5055874;28;20281;-78
2021/04/27 11:13:07;;;;;;;7.43;6.73;;;23.60;26.20;;;;;;5056560;28;20183;-78
2021/04/27 11:15:34;;;;;;;7.73;6.57;;;22.00;26.90;;;;;;5055604;28;20599;-78
2021/04/27 11:18:08;;;;;;;7.43;6.60;;;21.30;29.10;;;;;;5055625;28;20923;-78
2021/04/27 11:20:52;;;;;;;10.17;6.97;;;20.90;28.00;;;;;;5055616;28;20994;-78
2021/04/27 11:23:46;;;;;;;7.57;6.77;;;20.30;28.30;;;;;;5055818;28;20434;-78
2021/04/27 11:26:48;;;;;;;8.00;7.20;;;20.00;28.80;;;;;;5055716;28;20461;-78
2021/04/27 11:29:18;;;;;;;8.00;6.37;;;19.60;29.10;;;;;;5055712;28;20440;-78
2021/04/27 11:31:59;;;;;;;7.67;6.87;;;19.40;30.90;;;;;;5055204;28;20466;-78
2021/04/27 11:34:26;;;;;;;9.40;6.53;;;19.10;30.00;;;;;;5055545;28;20442;-78
2021/04/27 11:36:53;;;;;;;9.87;7.20;;;18.80;30.00;;;;;;5055493;28;20465;-77
2021/04/27 11:39:22;;;;;;;8.53;6.60;;;18.70;30.80;;;;;;5055545;28;20531;-77
2021/04/27 11:41:52;;;;;;;9.53;7.73;;;18.60;30.90;;;;;;5055167;28;20441;-78
2021/04/27 11:44:22;;;;;;;6.80;6.10;;;18.50;30.20;;;;;;5055184;28;20434;-77
2021/04/27 11:47:00;;;;;;;10.53;6.80;;;18.30;30.30;;;;;;5055322;28;20473;-77
2021/04/27 11:49:50;;;;;;;6.27;5.67;;;18.30;31.70;;;;;;5055347;28;20491;-78
2021/04/27 11:52:49;;;;;;;7.37;6.67;;;18.20;29.70;;;;;;5055282;28;20422;-77
2021/04/27 11:55:32;;;;;;;8.83;7.37;;;18.00;29.10;;;;;;5055208;28;20493;-77
2021/04/27 11:58:01;;;;;;;6.17;5.57;;;17.80;29.20;;;;;;5055251;28;20429;-77
2021/04/27 12:00:36;;;;;;;7.93;5.93;;;17.70;28.30;;;;;;5054839;28;20901;-77
2021/04/27 12:03:18;;;;;;;8.07;6.70;;;17.70;29.30;;;;;;5054789;28;20831;-77
2021/04/27 12:05:44;;;;;;;7.87;6.33;;;17.80;29.10;;;;;;5054968;28;20441;-77
2021/04/27 12:08:18;;;;;;;8.87;5.80;;;17.90;29.80;;;;;;5055022;28;20430;-77
2021/04/27 12:10:46;;;;;;;7.93;6.07;;;18.00;29.00;;;;;;5054896;28;20539;-77
2021/04/27 12:13:21;;;;;;;7.00;6.23;;;18.00;28.40;;;;;;5054976;28;20411;-77
2021/04/27 12:16:06;;;;;;;7.50;6.47;;;17.90;28.50;;;;;;5054759;28;20466;-77
2021/04/27 12:18:32;;;;;;;6.40;5.80;;;17.70;28.90;;;;;;5054507;28;20434;-77
2021/04/27 12:20:58;;;;;;;7.30;6.17;;;17.70;28.50;;;;;;5053764;28;20955;-77
2021/04/27 12:23:25;;;;;;;7.90;6.10;;;17.50;28.40;;;;;;5054395;28;20917;-77
2021/04/27 12:25:57;;;;;;;7.40;5.97;;;17.50;28.50;;;;;;5054616;28;20472;-77
2021/04/27 12:28:23;;;;;;;8.10;6.63;;;17.50;29.20;;;;;;5054318;28;20484;-78
2021/04/27 12:30:51;;;;;;;7.90;6.20;;;17.40;29.50;;;;;;5054212;28;20481;-77
2021/04/27 12:33:22;;;;;;;8.53;6.40;;;17.10;29.10;;;;;;5054192;28;20462;-77
2021/04/27 12:35:52;;;;;;;9.17;6.10;;;16.90;29.00;;;;;;5054404;28;20474;-77
2021/04/27 12:38:19;;;;;;;8.80;7.90;;;16.90;29.30;;;;;;5054404;28;20434;-77
2021/04/27 12:40:52;;;;;;;6.97;6.27;;;16.90;29.40;;;;;;5054430;28;20426;-77
2021/04/27 12:43:28;;;;;;;10.50;6.23;;;16.90;29.90;;;;;;5054349;28;20430;-77
2021/04/27 12:45:58;;;;;;;8.83;6.23;;;16.80;30.20;;;;;;5054237;28;20819;-77
2021/04/27 12:48:29;;;;;;;7.20;5.90;;;16.70;30.00;;;;;;5054205;28;20438;-77
2021/04/27 12:50:58;;;;;;;9.40;6.27;;;16.70;29.80;;;;;;5054074;28;20462;-79
2021/04/27 12:53:35;;;;;;;5.40;4.90;;;16.60;30.00;;;;;;5053800;28;20477;-78
2021/04/27 12:56:09;;;;;;;5.87;5.27;;;16.60;27.60;;;;;;5054038;28;20481;-78
2021/04/27 12:58:35;;;;;;;8.60;6.27;;;16.40;28.50;;;;;;5053730;28;20913;-77